Estación Meteorológica Peña el Pijo (Robertgarden) [ 01/16/21 21:30:09 CET ]

Fecha Hora Presion(HPa) Temp (°C) Humedad % Rocio (°C) Viento ( m/s) Direccion Lluvia 1Hora(mm) Lluvia 24H(mm) LLuvia Total(mm)
2021-Jan-15 01:09:30 1012.800 0.2 62 -6.2 - N     89.61
2021-Jan-15 02:11:13 1012.900 -0.4 63 -6.6 - N     89.61
2021-Jan-15 03:09:34 1012.900 -1.0 64 -7.0 - N     89.61
2021-Jan-15 04:09:29 1012.800 -1.1 66 -6.7 - N     89.61
2021-Jan-15 05:09:39 1012.500 -1.4 68 -6.6 - N     89.61
2021-Jan-15 06:09:36 1012.100 -1.6 71 -6.2 - N     89.61
2021-Jan-15 07:09:57 1012.100 -1.1 71 -5.7 - N     89.61
2021-Jan-15 08:09:31 1012.600 -2.2 73 -6.4 - N     89.61
2021-Jan-15 09:09:42 1012.600 -1.9 70 -6.6 - N     89.61
2021-Jan-15 10:09:48 1012.900 4.9 54 -3.7 - N     89.61
2021-Jan-15 11:09:02 1012.900 8.8 41 -3.8 - N     89.61
2021-Jan-15 12:09:36 1012.400 10.7 37 -3.5 - N     89.61
2021-Jan-15 13:09:38 1011.600 12.3 34 -3.2 - N     89.61
2021-Jan-15 14:09:13 1011.100 13.9 32 -2.6 - N     89.61
2021-Jan-15 15:09:43 1011.000 12.7 32 -3.7 - N     89.61
2021-Jan-15 16:09:37 1011.300 10.3 38 -3.5 - N     89.61
2021-Jan-15 17:09:33 1011.600 8.6 44 -3.1 - N     89.61
2021-Jan-15 18:09:30 1012.100 5.9 52 -3.2 - N     89.61
2021-Jan-15 19:09:38 1012.300 3.6 60 -3.5 - N     89.61
2021-Jan-15 20:09:34 1012.700 1.9 63 -4.4 - N     89.61
2021-Jan-15 21:09:38 1012.600 0.4 65 -5.4 - N     89.61
2021-Jan-15 22:09:28 1012.500 -0.2 65 -6.0 - N     89.61
2021-Jan-15 23:09:56 1012.600 -0.7 63 -6.9 - N     89.61

Temperatura Máxima:13°    Temperatura Mínima:-2°
Presión Máxima:1012.900 Hpa    Presión Mínima:1011.000 Hpa


Volver